sensor_id;sensor_type;location;lat;lon;timestamp;P1;durP1;ratioP1;P2;durP2;ratioP2
24102;SDS011;12278;53.058;9.028;2023-06-26T00:00:33;8.88;;;8.05;;
24102;SDS011;12278;53.058;9.028;2023-06-26T00:04:34;8.60;;;7.80;;
24102;SDS011;12278;53.058;9.028;2023-06-26T00:08:37;8.50;;;7.72;;
24102;SDS011;12278;53.058;9.028;2023-06-26T00:12:38;8.25;;;7.47;;
24102;SDS011;12278;53.058;9.028;2023-06-26T00:16:38;8.50;;;7.72;;
24102;SDS011;12278;53.058;9.028;2023-06-26T00:20:39;9.02;;;7.72;;
24102;SDS011;12278;53.058;9.028;2023-06-26T00:24:40;9.80;;;8.75;;
24102;SDS011;12278;53.058;9.028;2023-06-26T00:28:40;8.90;;;8.00;;
24102;SDS011;12278;53.058;9.028;2023-06-26T00:32:41;9.68;;;8.77;;
24102;SDS011;12278;53.058;9.028;2023-06-26T00:36:42;9.40;;;8.60;;
24102;SDS011;12278;53.058;9.028;2023-06-26T00:40:45;9.85;;;8.90;;
24102;SDS011;12278;53.058;9.028;2023-06-26T00:44:46;9.80;;;8.77;;
24102;SDS011;12278;53.058;9.028;2023-06-26T00:48:47;10.10;;;9.20;;
24102;SDS011;12278;53.058;9.028;2023-06-26T00:52:49;10.73;;;9.02;;
24102;SDS011;12278;53.058;9.028;2023-06-26T00:56:49;9.00;;;8.20;;
24102;SDS011;12278;53.058;9.028;2023-06-26T01:00:50;9.77;;;8.77;;
24102;SDS011;12278;53.058;9.028;2023-06-26T01:04:52;9.50;;;8.68;;
24102;SDS011;12278;53.058;9.028;2023-06-26T01:08:53;11.50;;;9.30;;
24102;SDS011;12278;53.058;9.028;2023-06-26T01:12:54;9.23;;;8.32;;
24102;SDS011;12278;53.058;9.028;2023-06-26T01:16:54;10.88;;;9.68;;
24102;SDS011;12278;53.058;9.028;2023-06-26T01:20:57;9.98;;;8.98;;
24102;SDS011;12278;53.058;9.028;2023-06-26T01:25:11;9.80;;;8.88;;
24102;SDS011;12278;53.058;9.028;2023-06-26T01:29:13;8.80;;;8.00;;
24102;SDS011;12278;53.058;9.028;2023-06-26T01:33:16;9.60;;;8.52;;
24102;SDS011;12278;53.058;9.028;2023-06-26T01:37:17;9.77;;;8.88;;
24102;SDS011;12278;53.058;9.028;2023-06-26T01:41:18;10.02;;;9.07;;
24102;SDS011;12278;53.058;9.028;2023-06-26T01:45:22;10.40;;;9.50;;
24102;SDS011;12278;53.058;9.028;2023-06-26T01:49:39;9.63;;;8.65;;
24102;SDS011;12278;53.058;9.028;2023-06-26T01:53:54;10.15;;;9.23;;
24102;SDS011;12278;53.058;9.028;2023-06-26T01:57:58;9.77;;;8.93;;
24102;SDS011;12278;53.058;9.028;2023-06-26T02:02:02;10.07;;;8.48;;
24102;SDS011;12278;53.058;9.028;2023-06-26T02:06:07;10.00;;;9.05;;
24102;SDS011;12278;53.058;9.028;2023-06-26T02:10:08;9.18;;;8.38;;
24102;SDS011;12278;53.058;9.028;2023-06-26T02:14:08;9.73;;;8.88;;
24102;SDS011;12278;53.058;9.028;2023-06-26T02:18:11;9.55;;;8.70;;
24102;SDS011;12278;53.058;9.028;2023-06-26T02:22:11;10.43;;;9.32;;
24102;SDS011;12278;53.058;9.028;2023-06-26T02:26:12;9.95;;;9.00;;
24102;SDS011;12278;53.058;9.028;2023-06-26T02:30:12;9.95;;;8.57;;
24102;SDS011;12278;53.058;9.028;2023-06-26T02:34:14;10.38;;;9.38;;
24102;SDS011;12278;53.058;9.028;2023-06-26T02:38:15;10.15;;;9.25;;
24102;SDS011;12278;53.058;9.028;2023-06-26T02:42:15;10.20;;;9.38;;
24102;SDS011;12278;53.058;9.028;2023-06-26T02:46:16;10.63;;;9.52;;
24102;SDS011;12278;53.058;9.028;2023-06-26T02:54:21;10.65;;;9.65;;
24102;SDS011;12278;53.058;9.028;2023-06-26T02:58:21;10.75;;;9.75;;
24102;SDS011;12278;53.058;9.028;2023-06-26T03:02:22;10.60;;;9.50;;
24102;SDS011;12278;53.058;9.028;2023-06-26T03:06:23;10.82;;;9.77;;
24102;SDS011;12278;53.058;9.028;2023-06-26T03:10:23;14.90;;;10.05;;
24102;SDS011;12278;53.058;9.028;2023-06-26T03:14:24;10.35;;;9.25;;
24102;SDS011;12278;53.058;9.028;2023-06-26T03:18:26;10.95;;;9.95;;
24102;SDS011;12278;53.058;9.028;2023-06-26T03:22:27;11.40;;;10.07;;
24102;SDS011;12278;53.058;9.028;2023-06-26T03:26:28;10.45;;;9.50;;
24102;SDS011;12278;53.058;9.028;2023-06-26T03:30:29;10.43;;;9.32;;
24102;SDS011;12278;53.058;9.028;2023-06-26T03:34:30;10.60;;;9.55;;
24102;SDS011;12278;53.058;9.028;2023-06-26T03:38:31;10.02;;;9.13;;
24102;SDS011;12278;53.058;9.028;2023-06-26T03:42:31;10.88;;;9.88;;
24102;SDS011;12278;53.058;9.028;2023-06-26T03:46:32;11.45;;;10.40;;
24102;SDS011;12278;53.058;9.028;2023-06-26T03:50:34;11.02;;;10.02;;
24102;SDS011;12278;53.058;9.028;2023-06-26T03:54:34;9.98;;;9.05;;
24102;SDS011;12278;53.058;9.028;2023-06-26T03:58:35;10.35;;;9.35;;
24102;SDS011;12278;53.058;9.028;2023-06-26T04:02:36;10.90;;;9.85;;
24102;SDS011;12278;53.058;9.028;2023-06-26T04:06:36;10.63;;;9.57;;
24102;SDS011;12278;53.058;9.028;2023-06-26T04:10:37;11.88;;;9.82;;
24102;SDS011;12278;53.058;9.028;2023-06-26T04:14:38;10.40;;;9.07;;
24102;SDS011;12278;53.058;9.028;2023-06-26T04:18:39;10.13;;;9.13;;
24102;SDS011;12278;53.058;9.028;2023-06-26T04:22:40;10.95;;;9.85;;
24102;SDS011;12278;53.058;9.028;2023-06-26T04:26:41;9.80;;;8.77;;
24102;SDS011;12278;53.058;9.028;2023-06-26T04:30:42;9.65;;;8.80;;
24102;SDS011;12278;53.058;9.028;2023-06-26T04:34:42;8.57;;;7.88;;
24102;SDS011;12278;53.058;9.028;2023-06-26T04:38:43;10.00;;;8.45;;
24102;SDS011;12278;53.058;9.028;2023-06-26T04:42:44;9.43;;;8.48;;
24102;SDS011;12278;53.058;9.028;2023-06-26T04:46:44;9.63;;;8.68;;
24102;SDS011;12278;53.058;9.028;2023-06-26T04:50:45;9.68;;;8.38;;
24102;SDS011;12278;53.058;9.028;2023-06-26T04:54:53;9.30;;;8.48;;
24102;SDS011;12278;53.058;9.028;2023-06-26T04:58:54;9.20;;;8.40;;
24102;SDS011;12278;53.058;9.028;2023-06-26T05:02:54;9.07;;;7.95;;
24102;SDS011;12278;53.058;9.028;2023-06-26T05:07:00;8.70;;;7.85;;
24102;SDS011;12278;53.058;9.028;2023-06-26T05:11:01;8.63;;;7.85;;
24102;SDS011;12278;53.058;9.028;2023-06-26T05:15:01;7.95;;;7.25;;
24102;SDS011;12278;53.058;9.028;2023-06-26T05:19:03;9.02;;;8.13;;
24102;SDS011;12278;53.058;9.028;2023-06-26T05:23:04;9.52;;;8.40;;
24102;SDS011;12278;53.058;9.028;2023-06-26T05:27:07;9.55;;;8.32;;
24102;SDS011;12278;53.058;9.028;2023-06-26T05:31:08;11.32;;;7.65;;
24102;SDS011;12278;53.058;9.028;2023-06-26T05:35:09;8.93;;;7.05;;
24102;SDS011;12278;53.058;9.028;2023-06-26T05:39:10;7.53;;;6.82;;
24102;SDS011;12278;53.058;9.028;2023-06-26T05:43:13;8.93;;;7.82;;
24102;SDS011;12278;53.058;9.028;2023-06-26T05:47:18;8.35;;;7.55;;
24102;SDS011;12278;53.058;9.028;2023-06-26T05:51:18;10.00;;;7.03;;
24102;SDS011;12278;53.058;9.028;2023-06-26T05:55:22;8.52;;;6.70;;
24102;SDS011;12278;53.058;9.028;2023-06-26T06:03:27;7.65;;;6.95;;
24102;SDS011;12278;53.058;9.028;2023-06-26T06:07:27;9.23;;;6.80;;
24102;SDS011;12278;53.058;9.028;2023-06-26T06:11:28;8.52;;;7.10;;
24102;SDS011;12278;53.058;9.028;2023-06-26T06:15:29;7.15;;;6.55;;
24102;SDS011;12278;53.058;9.028;2023-06-26T06:23:33;7.80;;;7.00;;
24102;SDS011;12278;53.058;9.028;2023-06-26T06:27:36;7.53;;;6.82;;
24102;SDS011;12278;53.058;9.028;2023-06-26T06:31:36;9.32;;;6.82;;
24102;SDS011;12278;53.058;9.028;2023-06-26T06:35:37;6.88;;;6.28;;
24102;SDS011;12278;53.058;9.028;2023-06-26T06:39:38;7.15;;;6.47;;
24102;SDS011;12278;53.058;9.028;2023-06-26T06:43:38;8.35;;;6.55;;
24102;SDS011;12278;53.058;9.028;2023-06-26T06:47:39;7.40;;;6.68;;
24102;SDS011;12278;53.058;9.028;2023-06-26T06:51:40;7.28;;;5.88;;
24102;SDS011;12278;53.058;9.028;2023-06-26T06:55:40;7.47;;;6.43;;
24102;SDS011;12278;53.058;9.028;2023-06-26T06:59:41;7.60;;;6.90;;
24102;SDS011;12278;53.058;9.028;2023-06-26T07:03:42;8.60;;;6.53;;
24102;SDS011;12278;53.058;9.028;2023-06-26T07:07:42;8.32;;;7.35;;
24102;SDS011;12278;53.058;9.028;2023-06-26T07:11:43;9.70;;;6.70;;
24102;SDS011;12278;53.058;9.028;2023-06-26T07:15:44;8.38;;;6.68;;
24102;SDS011;12278;53.058;9.028;2023-06-26T07:19:50;7.38;;;6.53;;
24102;SDS011;12278;53.058;9.028;2023-06-26T07:23:51;8.13;;;7.32;;
24102;SDS011;12278;53.058;9.028;2023-06-26T07:27:52;10.27;;;7.57;;
24102;SDS011;12278;53.058;9.028;2023-06-26T07:31:52;7.78;;;7.07;;
24102;SDS011;12278;53.058;9.028;2023-06-26T07:35:53;11.00;;;7.95;;
24102;SDS011;12278;53.058;9.028;2023-06-26T07:39:53;8.60;;;7.82;;
24102;SDS011;12278;53.058;9.028;2023-06-26T07:43:54;9.95;;;9.05;;
24102;SDS011;12278;53.058;9.028;2023-06-26T07:47:55;9.48;;;8.60;;
24102;SDS011;12278;53.058;9.028;2023-06-26T07:51:56;9.70;;;8.75;;
24102;SDS011;12278;53.058;9.028;2023-06-26T07:55:57;9.68;;;7.78;;
24102;SDS011;12278;53.058;9.028;2023-06-26T07:59:58;8.88;;;7.97;;
24102;SDS011;12278;53.058;9.028;2023-06-26T08:03:58;9.75;;;8.75;;
24102;SDS011;12278;53.058;9.028;2023-06-26T08:07:59;8.07;;;7.25;;
24102;SDS011;12278;53.058;9.028;2023-06-26T08:12:02;8.63;;;7.10;;
24102;SDS011;12278;53.058;9.028;2023-06-26T08:16:02;7.60;;;6.55;;
24102;SDS011;12278;53.058;9.028;2023-06-26T08:20:03;9.48;;;8.27;;
24102;SDS011;12278;53.058;9.028;2023-06-26T08:24:05;9.15;;;7.80;;
24102;SDS011;12278;53.058;9.028;2023-06-26T08:28:05;12.75;;;7.95;;
24102;SDS011;12278;53.058;9.028;2023-06-26T08:32:06;10.10;;;8.95;;
24102;SDS011;12278;53.058;9.028;2023-06-26T08:36:07;10.55;;;9.55;;
24102;SDS011;12278;53.058;9.028;2023-06-26T08:40:07;11.45;;;8.13;;
24102;SDS011;12278;53.058;9.028;2023-06-26T08:44:08;9.75;;;8.75;;
24102;SDS011;12278;53.058;9.028;2023-06-26T08:48:09;11.45;;;7.80;;
24102;SDS011;12278;53.058;9.028;2023-06-26T08:52:10;8.73;;;5.90;;
24102;SDS011;12278;53.058;9.028;2023-06-26T08:56:17;6.70;;;5.57;;
24102;SDS011;12278;53.058;9.028;2023-06-26T09:00:21;7.35;;;5.53;;
24102;SDS011;12278;53.058;9.028;2023-06-26T09:04:22;9.20;;;6.78;;
24102;SDS011;12278;53.058;9.028;2023-06-26T09:08:23;10.13;;;7.28;;
24102;SDS011;12278;53.058;9.028;2023-06-26T09:12:26;8.93;;;7.38;;
24102;SDS011;12278;53.058;9.028;2023-06-26T09:16:28;9.30;;;7.43;;
24102;SDS011;12278;53.058;9.028;2023-06-26T09:20:28;10.57;;;8.00;;
24102;SDS011;12278;53.058;9.028;2023-06-26T09:24:30;10.90;;;8.45;;
24102;SDS011;12278;53.058;9.028;2023-06-26T09:28:32;13.25;;;9.88;;
24102;SDS011;12278;53.058;9.028;2023-06-26T09:32:37;12.07;;;10.88;;
24102;SDS011;12278;53.058;9.028;2023-06-26T09:36:38;12.57;;;10.95;;
24102;SDS011;12278;53.058;9.028;2023-06-26T09:40:39;12.90;;;10.38;;
24102;SDS011;12278;53.058;9.028;2023-06-26T09:44:46;14.13;;;11.38;;
24102;SDS011;12278;53.058;9.028;2023-06-26T09:48:47;12.60;;;9.98;;
24102;SDS011;12278;53.058;9.028;2023-06-26T09:52:50;12.65;;;8.00;;
24102;SDS011;12278;53.058;9.028;2023-06-26T09:56:52;11.55;;;7.85;;
24102;SDS011;12278;53.058;9.028;2023-06-26T10:00:56;8.57;;;6.50;;
24102;SDS011;12278;53.058;9.028;2023-06-26T10:04:57;5.88;;;5.03;;
24102;SDS011;12278;53.058;9.028;2023-06-26T10:08:58;5.60;;;4.88;;
24102;SDS011;12278;53.058;9.028;2023-06-26T10:13:01;8.48;;;4.53;;
24102;SDS011;12278;53.058;9.028;2023-06-26T10:17:11;9.13;;;4.68;;
24102;SDS011;12278;53.058;9.028;2023-06-26T10:21:16;8.40;;;3.55;;
24102;SDS011;12278;53.058;9.028;2023-06-26T10:25:18;5.57;;;3.03;;
24102;SDS011;12278;53.058;9.028;2023-06-26T10:29:20;5.22;;;3.65;;
24102;SDS011;12278;53.058;9.028;2023-06-26T10:33:22;5.57;;;3.47;;
24102;SDS011;12278;53.058;9.028;2023-06-26T10:41:45;5.85;;;2.95;;
24102;SDS011;12278;53.058;9.028;2023-06-26T10:45:47;6.05;;;2.80;;
24102;SDS011;12278;53.058;9.028;2023-06-26T10:49:55;8.20;;;2.53;;
24102;SDS011;12278;53.058;9.028;2023-06-26T10:53:56;4.70;;;2.67;;
24102;SDS011;12278;53.058;9.028;2023-06-26T10:57:57;6.20;;;2.55;;
24102;SDS011;12278;53.058;9.028;2023-06-26T11:02:03;7.15;;;2.92;;
24102;SDS011;12278;53.058;9.028;2023-06-26T11:06:08;5.22;;;2.40;;
24102;SDS011;12278;53.058;9.028;2023-06-26T11:10:09;3.13;;;2.30;;
24102;SDS011;12278;53.058;9.028;2023-06-26T11:14:10;3.60;;;2.05;;
24102;SDS011;12278;53.058;9.028;2023-06-26T11:18:12;5.70;;;1.75;;
24102;SDS011;12278;53.058;9.028;2023-06-26T11:22:14;7.63;;;1.90;;
24102;SDS011;12278;53.058;9.028;2023-06-26T11:26:16;4.13;;;1.92;;
24102;SDS011;12278;53.058;9.028;2023-06-26T11:30:24;4.00;;;1.83;;
24102;SDS011;12278;53.058;9.028;2023-06-26T11:34:25;4.43;;;2.17;;
24102;SDS011;12278;53.058;9.028;2023-06-26T11:38:36;2.97;;;1.73;;
24102;SDS011;12278;53.058;9.028;2023-06-26T11:42:37;3.15;;;1.85;;
24102;SDS011;12278;53.058;9.028;2023-06-26T11:46:38;7.07;;;2.28;;
24102;SDS011;12278;53.058;9.028;2023-06-26T11:50:39;3.30;;;1.60;;
24102;SDS011;12278;53.058;9.028;2023-06-26T11:54:41;3.50;;;2.10;;
24102;SDS011;12278;53.058;9.028;2023-06-26T12:03:04;2.33;;;1.77;;
24102;SDS011;12278;53.058;9.028;2023-06-26T12:07:05;5.28;;;1.83;;
24102;SDS011;12278;53.058;9.028;2023-06-26T12:11:08;3.80;;;1.30;;
24102;SDS011;12278;53.058;9.028;2023-06-26T12:15:12;2.75;;;2.10;;
24102;SDS011;12278;53.058;9.028;2023-06-26T12:19:15;5.97;;;2.38;;
24102;SDS011;12278;53.058;9.028;2023-06-26T12:23:16;2.65;;;1.73;;
24102;SDS011;12278;53.058;9.028;2023-06-26T12:27:17;3.90;;;1.65;;
24102;SDS011;12278;53.058;9.028;2023-06-26T12:31:20;2.38;;;1.80;;
24102;SDS011;12278;53.058;9.028;2023-06-26T12:35:21;4.25;;;1.98;;
24102;SDS011;12278;53.058;9.028;2023-06-26T12:39:22;5.70;;;2.30;;
24102;SDS011;12278;53.058;9.028;2023-06-26T12:43:25;2.25;;;2.03;;
24102;SDS011;12278;53.058;9.028;2023-06-26T12:47:27;6.15;;;2.40;;
24102;SDS011;12278;53.058;9.028;2023-06-26T12:51:30;3.08;;;1.88;;
24102;SDS011;12278;53.058;9.028;2023-06-26T12:55:31;3.90;;;1.92;;
24102;SDS011;12278;53.058;9.028;2023-06-26T12:59:32;4.13;;;1.75;;
24102;SDS011;12278;53.058;9.028;2023-06-26T13:03:36;1.98;;;1.77;;
24102;SDS011;12278;53.058;9.028;2023-06-26T13:07:37;5.78;;;1.90;;
24102;SDS011;12278;53.058;9.028;2023-06-26T13:11:38;2.13;;;1.50;;
24102;SDS011;12278;53.058;9.028;2023-06-26T13:15:39;3.42;;;1.85;;
24102;SDS011;12278;53.058;9.028;2023-06-26T13:19:40;2.88;;;1.83;;
24102;SDS011;12278;53.058;9.028;2023-06-26T13:23:40;3.88;;;1.60;;
24102;SDS011;12278;53.058;9.028;2023-06-26T13:27:41;2.20;;;1.77;;
24102;SDS011;12278;53.058;9.028;2023-06-26T13:31:42;2.85;;;1.95;;
24102;SDS011;12278;53.058;9.028;2023-06-26T13:35:43;3.63;;;2.20;;
24102;SDS011;12278;53.058;9.028;2023-06-26T13:39:44;3.13;;;2.15;;
24102;SDS011;12278;53.058;9.028;2023-06-26T13:43:49;2.10;;;1.63;;
24102;SDS011;12278;53.058;9.028;2023-06-26T13:47:50;4.07;;;2.42;;
24102;SDS011;12278;53.058;9.028;2023-06-26T13:51:51;6.90;;;2.00;;
24102;SDS011;12278;53.058;9.028;2023-06-26T13:55:53;4.78;;;2.00;;
24102;SDS011;12278;53.058;9.028;2023-06-26T13:59:54;2.25;;;1.88;;
24102;SDS011;12278;53.058;9.028;2023-06-26T14:03:54;2.00;;;1.50;;
24102;SDS011;12278;53.058;9.028;2023-06-26T14:07:55;2.70;;;1.55;;
24102;SDS011;12278;53.058;9.028;2023-06-26T14:11:56;1.92;;;1.60;;
24102;SDS011;12278;53.058;9.028;2023-06-26T14:15:57;3.05;;;2.40;;
24102;SDS011;12278;53.058;9.028;2023-06-26T14:19:58;2.88;;;2.38;;
24102;SDS011;12278;53.058;9.028;2023-06-26T14:23:59;4.38;;;2.17;;
24102;SDS011;12278;53.058;9.028;2023-06-26T14:27:59;4.00;;;2.28;;
24102;SDS011;12278;53.058;9.028;2023-06-26T14:32:00;3.20;;;1.95;;
24102;SDS011;12278;53.058;9.028;2023-06-26T14:36:01;3.05;;;1.80;;
24102;SDS011;12278;53.058;9.028;2023-06-26T14:40:01;3.70;;;2.00;;
24102;SDS011;12278;53.058;9.028;2023-06-26T14:44:02;3.67;;;1.90;;
24102;SDS011;12278;53.058;9.028;2023-06-26T14:48:04;1.65;;;1.55;;
24102;SDS011;12278;53.058;9.028;2023-06-26T14:52:05;5.07;;;1.63;;
24102;SDS011;12278;53.058;9.028;2023-06-26T14:56:06;2.90;;;1.77;;
24102;SDS011;12278;53.058;9.028;2023-06-26T15:04:13;3.40;;;1.92;;
24102;SDS011;12278;53.058;9.028;2023-06-26T15:08:14;5.03;;;1.98;;
24102;SDS011;12278;53.058;9.028;2023-06-26T15:12:14;3.30;;;1.90;;
24102;SDS011;12278;53.058;9.028;2023-06-26T15:16:15;2.83;;;2.15;;
24102;SDS011;12278;53.058;9.028;2023-06-26T15:20:25;3.78;;;2.00;;
24102;SDS011;12278;53.058;9.028;2023-06-26T15:24:25;3.67;;;1.88;;
24102;SDS011;12278;53.058;9.028;2023-06-26T15:28:26;1.60;;;1.35;;
24102;SDS011;12278;53.058;9.028;2023-06-26T15:32:27;4.13;;;1.70;;
24102;SDS011;12278;53.058;9.028;2023-06-26T15:36:28;3.53;;;1.88;;
24102;SDS011;12278;53.058;9.028;2023-06-26T15:40:28;3.70;;;1.80;;
24102;SDS011;12278;53.058;9.028;2023-06-26T15:44:30;2.25;;;1.38;;
24102;SDS011;12278;53.058;9.028;2023-06-26T15:48:32;4.82;;;2.10;;
24102;SDS011;12278;53.058;9.028;2023-06-26T15:52:33;2.30;;;1.77;;
24102;SDS011;12278;53.058;9.028;2023-06-26T15:56:34;3.33;;;2.15;;
24102;SDS011;12278;53.058;9.028;2023-06-26T16:00:34;2.53;;;1.67;;
24102;SDS011;12278;53.058;9.028;2023-06-26T16:04:36;4.32;;;2.35;;
24102;SDS011;12278;53.058;9.028;2023-06-26T16:08:37;3.53;;;1.60;;
24102;SDS011;12278;53.058;9.028;2023-06-26T16:16:43;5.90;;;1.60;;
24102;SDS011;12278;53.058;9.028;2023-06-26T16:20:44;1.52;;;1.20;;
24102;SDS011;12278;53.058;9.028;2023-06-26T16:24:46;5.07;;;1.67;;
24102;SDS011;12278;53.058;9.028;2023-06-26T16:28:46;4.90;;;1.35;;
24102;SDS011;12278;53.058;9.028;2023-06-26T16:32:50;2.45;;;1.05;;
24102;SDS011;12278;53.058;9.028;2023-06-26T16:36:51;2.25;;;1.20;;
24102;SDS011;12278;53.058;9.028;2023-06-26T16:40:51;3.15;;;1.05;;
24102;SDS011;12278;53.058;9.028;2023-06-26T16:44:52;3.50;;;2.05;;
24102;SDS011;12278;53.058;9.028;2023-06-26T16:48:53;3.22;;;1.58;;
24102;SDS011;12278;53.058;9.028;2023-06-26T16:52:57;3.10;;;1.42;;
24102;SDS011;12278;53.058;9.028;2023-06-26T16:57:00;2.85;;;1.08;;
24102;SDS011;12278;53.058;9.028;2023-06-26T17:05:05;1.45;;;1.00;;
24102;SDS011;12278;53.058;9.028;2023-06-26T17:09:06;3.38;;;1.50;;
24102;SDS011;12278;53.058;9.028;2023-06-26T17:13:06;3.53;;;1.10;;
24102;SDS011;12278;53.058;9.028;2023-06-26T17:17:07;2.83;;;1.55;;
24102;SDS011;12278;53.058;9.028;2023-06-26T17:21:08;1.58;;;1.13;;
24102;SDS011;12278;53.058;9.028;2023-06-26T17:25:09;3.33;;;1.55;;
24102;SDS011;12278;53.058;9.028;2023-06-26T17:29:11;2.35;;;1.48;;
24102;SDS011;12278;53.058;9.028;2023-06-26T17:33:12;2.58;;;1.27;;
24102;SDS011;12278;53.058;9.028;2023-06-26T17:37:13;2.22;;;1.33;;
24102;SDS011;12278;53.058;9.028;2023-06-26T17:41:13;3.10;;;1.42;;
24102;SDS011;12278;53.058;9.028;2023-06-26T17:45:15;2.10;;;1.42;;
24102;SDS011;12278;53.058;9.028;2023-06-26T17:49:16;3.92;;;1.98;;
24102;SDS011;12278;53.058;9.028;2023-06-26T17:53:16;2.65;;;1.40;;
24102;SDS011;12278;53.058;9.028;2023-06-26T17:57:18;2.72;;;1.60;;
24102;SDS011;12278;53.058;9.028;2023-06-26T18:01:18;3.90;;;1.60;;
24102;SDS011;12278;53.058;9.028;2023-06-26T18:05:19;6.20;;;1.88;;
24102;SDS011;12278;53.058;9.028;2023-06-26T18:09:20;3.13;;;1.90;;
24102;SDS011;12278;53.058;9.028;2023-06-26T18:13:22;2.40;;;1.73;;
24102;SDS011;12278;53.058;9.028;2023-06-26T18:17:25;3.45;;;1.80;;
24102;SDS011;12278;53.058;9.028;2023-06-26T18:21:25;4.15;;;1.80;;
24102;SDS011;12278;53.058;9.028;2023-06-26T18:25:27;3.97;;;1.88;;
24102;SDS011;12278;53.058;9.028;2023-06-26T18:29:28;5.15;;;1.85;;
24102;SDS011;12278;53.058;9.028;2023-06-26T18:33:28;9.00;;;2.10;;
24102;SDS011;12278;53.058;9.028;2023-06-26T18:37:29;4.07;;;1.88;;
24102;SDS011;12278;53.058;9.028;2023-06-26T18:41:30;4.90;;;2.05;;
24102;SDS011;12278;53.058;9.028;2023-06-26T18:45:31;3.55;;;2.05;;
24102;SDS011;12278;53.058;9.028;2023-06-26T18:49:32;3.97;;;2.22;;
24102;SDS011;12278;53.058;9.028;2023-06-26T18:53:33;7.40;;;2.20;;
24102;SDS011;12278;53.058;9.028;2023-06-26T18:57:33;2.75;;;2.30;;
24102;SDS011;12278;53.058;9.028;2023-06-26T19:01:38;6.35;;;2.40;;
24102;SDS011;12278;53.058;9.028;2023-06-26T19:05:40;7.32;;;2.30;;
24102;SDS011;12278;53.058;9.028;2023-06-26T19:09:40;3.40;;;1.95;;
24102;SDS011;12278;53.058;9.028;2023-06-26T19:13:41;4.50;;;2.70;;
24102;SDS011;12278;53.058;9.028;2023-06-26T19:17:42;6.05;;;2.42;;
24102;SDS011;12278;53.058;9.028;2023-06-26T19:21:52;7.53;;;2.28;;
24102;SDS011;12278;53.058;9.028;2023-06-26T19:25:52;4.97;;;2.67;;
24102;SDS011;12278;53.058;9.028;2023-06-26T19:29:53;3.72;;;2.28;;
24102;SDS011;12278;53.058;9.028;2023-06-26T19:33:54;6.10;;;2.10;;
24102;SDS011;12278;53.058;9.028;2023-06-26T19:37:54;3.83;;;2.60;;
24102;SDS011;12278;53.058;9.028;2023-06-26T19:41:56;5.28;;;2.50;;
24102;SDS011;12278;53.058;9.028;2023-06-26T19:45:58;6.60;;;2.72;;
24102;SDS011;12278;53.058;9.028;2023-06-26T19:49:59;3.20;;;2.10;;
24102;SDS011;12278;53.058;9.028;2023-06-26T19:53:59;3.85;;;2.17;;
24102;SDS011;12278;53.058;9.028;2023-06-26T19:58:02;6.50;;;2.47;;
24102;SDS011;12278;53.058;9.028;2023-06-26T20:02:03;2.53;;;1.60;;
24102;SDS011;12278;53.058;9.028;2023-06-26T20:06:04;2.40;;;1.92;;
24102;SDS011;12278;53.058;9.028;2023-06-26T20:10:05;8.57;;;2.25;;
24102;SDS011;12278;53.058;9.028;2023-06-26T20:14:08;8.05;;;2.75;;
24102;SDS011;12278;53.058;9.028;2023-06-26T20:18:09;6.70;;;2.15;;
24102;SDS011;12278;53.058;9.028;2023-06-26T20:22:09;4.38;;;2.03;;
24102;SDS011;12278;53.058;9.028;2023-06-26T20:26:11;5.70;;;2.30;;
24102;SDS011;12278;53.058;9.028;2023-06-26T20:30:14;5.20;;;2.28;;
24102;SDS011;12278;53.058;9.028;2023-06-26T20:34:14;6.25;;;4.43;;
24102;SDS011;12278;53.058;9.028;2023-06-26T20:38:15;5.05;;;2.33;;
24102;SDS011;12278;53.058;9.028;2023-06-26T20:42:18;4.57;;;2.00;;
24102;SDS011;12278;53.058;9.028;2023-06-26T20:46:19;6.03;;;2.30;;
24102;SDS011;12278;53.058;9.028;2023-06-26T20:50:22;4.85;;;2.47;;
24102;SDS011;12278;53.058;9.028;2023-06-26T20:54:23;5.15;;;2.70;;
24102;SDS011;12278;53.058;9.028;2023-06-26T20:58:24;5.88;;;2.22;;
24102;SDS011;12278;53.058;9.028;2023-06-26T21:02:30;8.20;;;2.58;;
24102;SDS011;12278;53.058;9.028;2023-06-26T21:06:32;5.32;;;2.05;;
24102;SDS011;12278;53.058;9.028;2023-06-26T21:10:33;8.82;;;3.15;;
24102;SDS011;12278;53.058;9.028;2023-06-26T21:14:33;3.95;;;2.30;;
24102;SDS011;12278;53.058;9.028;2023-06-26T21:18:34;5.88;;;2.15;;
24102;SDS011;12278;53.058;9.028;2023-06-26T21:22:35;7.78;;;2.58;;
24102;SDS011;12278;53.058;9.028;2023-06-26T21:26:36;5.18;;;2.65;;
24102;SDS011;12278;53.058;9.028;2023-06-26T21:30:38;5.90;;;2.60;;
24102;SDS011;12278;53.058;9.028;2023-06-26T21:34:39;5.22;;;2.50;;
24102;SDS011;12278;53.058;9.028;2023-06-26T21:38:39;9.45;;;3.25;;
24102;SDS011;12278;53.058;9.028;2023-06-26T21:42:40;6.28;;;2.33;;
24102;SDS011;12278;53.058;9.028;2023-06-26T21:46:41;9.05;;;2.70;;
24102;SDS011;12278;53.058;9.028;2023-06-26T21:50:41;5.28;;;2.50;;
24102;SDS011;12278;53.058;9.028;2023-06-26T21:54:42;12.82;;;3.60;;
24102;SDS011;12278;53.058;9.028;2023-06-26T21:58:43;5.35;;;2.38;;
24102;SDS011;12278;53.058;9.028;2023-06-26T22:02:44;11.48;;;2.90;;
24102;SDS011;12278;53.058;9.028;2023-06-26T22:06:45;5.28;;;2.83;;
24102;SDS011;12278;53.058;9.028;2023-06-26T22:10:45;5.95;;;2.17;;
24102;SDS011;12278;53.058;9.028;2023-06-26T22:14:46;7.80;;;2.95;;
24102;SDS011;12278;53.058;9.028;2023-06-26T22:18:47;6.95;;;2.72;;
24102;SDS011;12278;53.058;9.028;2023-06-26T22:22:47;10.00;;;3.40;;
24102;SDS011;12278;53.058;9.028;2023-06-26T22:26:48;5.75;;;2.90;;
24102;SDS011;12278;53.058;9.028;2023-06-26T22:30:49;5.72;;;2.55;;
24102;SDS011;12278;53.058;9.028;2023-06-26T22:34:50;9.52;;;3.28;;
24102;SDS011;12278;53.058;9.028;2023-06-26T22:38:51;7.22;;;3.83;;
24102;SDS011;12278;53.058;9.028;2023-06-26T22:42:51;14.35;;;3.33;;
24102;SDS011;12278;53.058;9.028;2023-06-26T22:46:52;7.28;;;2.78;;
24102;SDS011;12278;53.058;9.028;2023-06-26T22:50:53;9.57;;;2.75;;
24102;SDS011;12278;53.058;9.028;2023-06-26T22:54:54;6.95;;;2.65;;
24102;SDS011;12278;53.058;9.028;2023-06-26T22:58:56;6.32;;;2.08;;
24102;SDS011;12278;53.058;9.028;2023-06-26T23:02:56;8.88;;;2.53;;
24102;SDS011;12278;53.058;9.028;2023-06-26T23:06:58;8.30;;;2.42;;
24102;SDS011;12278;53.058;9.028;2023-06-26T23:10:59;7.60;;;3.03;;
24102;SDS011;12278;53.058;9.028;2023-06-26T23:15:03;4.93;;;2.00;;
24102;SDS011;12278;53.058;9.028;2023-06-26T23:19:04;10.48;;;2.90;;
24102;SDS011;12278;53.058;9.028;2023-06-26T23:23:05;4.18;;;2.92;;
24102;SDS011;12278;53.058;9.028;2023-06-26T23:27:06;6.20;;;2.83;;
24102;SDS011;12278;53.058;9.028;2023-06-26T23:31:08;6.97;;;2.75;;
24102;SDS011;12278;53.058;9.028;2023-06-26T23:35:09;7.50;;;2.60;;
24102;SDS011;12278;53.058;9.028;2023-06-26T23:39:11;6.55;;;2.50;;
24102;SDS011;12278;53.058;9.028;2023-06-26T23:43:11;5.28;;;2.65;;
24102;SDS011;12278;53.058;9.028;2023-06-26T23:47:14;5.55;;;2.67;;
24102;SDS011;12278;53.058;9.028;2023-06-26T23:51:15;7.32;;;2.22;;
24102;SDS011;12278;53.058;9.028;2023-06-26T23:55:15;8.15;;;2.65;;
24102;SDS011;12278;53.058;9.028;2023-06-26T23:59:17;11.88;;;3.42;;
